createdAt,value
2022-09-03T00:00:26.539Z,16.94
2022-09-03T00:01:28.831Z,16.96
2022-09-03T00:02:27.154Z,16.91
2022-09-03T00:03:27.418Z,16.93
2022-09-03T00:04:29.589Z,16.93
2022-09-03T00:05:27.963Z,16.97
2022-09-03T00:06:28.252Z,17.01
2022-09-03T00:07:28.563Z,17.02
2022-09-03T00:08:28.865Z,16.91
2022-09-03T00:09:31.055Z,16.93
2022-09-03T00:10:29.438Z,16.97
2022-09-03T00:11:31.682Z,16.91
2022-09-03T00:12:30.091Z,17.01
2022-09-03T00:13:30.394Z,16.99
2022-09-03T00:14:32.564Z,17.01
2022-09-03T00:15:30.945Z,16.96
2022-09-03T00:16:33.130Z,17.01
2022-09-03T00:17:33.325Z,17.06
2022-09-03T00:18:33.504Z,17.02
2022-09-03T00:19:33.690Z,16.89
2022-09-03T00:20:34.365Z,16.93
2022-09-03T00:21:34.557Z,16.96
2022-09-03T00:22:34.729Z,16.91
2022-09-03T00:23:34.909Z,16.87
2022-09-03T00:24:33.658Z,16.90
2022-09-03T00:25:35.840Z,16.91
2022-09-03T00:26:34.223Z,16.93
2022-09-03T00:27:36.397Z,16.84
2022-09-03T00:28:34.786Z,16.79
2022-09-03T00:29:36.968Z,16.84
2022-09-03T00:30:35.338Z,16.84
2022-09-03T00:31:35.634Z,16.90
2022-09-03T00:32:37.763Z,16.90
2022-09-03T00:33:36.147Z,16.93
2022-09-03T00:34:38.326Z,16.96
2022-09-03T00:35:36.718Z,16.84
2022-09-03T00:36:38.902Z,16.84
2022-09-03T00:37:39.077Z,16.87
2022-09-03T00:38:37.584Z,16.89
2022-09-03T00:39:37.950Z,16.78
2022-09-03T00:40:40.067Z,16.72
2022-09-03T00:41:38.560Z,16.75
2022-09-03T00:42:38.868Z,16.72
2022-09-03T00:43:41.071Z,16.76
2022-09-03T00:44:39.451Z,16.72
2022-09-03T00:45:41.627Z,16.74
2022-09-03T00:46:40.031Z,16.76
2022-09-03T00:47:40.318Z,16.84
2022-09-03T00:48:42.504Z,16.79
2022-09-03T00:49:40.880Z,16.68
2022-09-03T00:50:43.059Z,16.71
2022-09-03T00:51:43.261Z,16.69
2022-09-03T00:52:43.439Z,16.74
2022-09-03T00:53:42.070Z,16.83
2022-09-03T00:54:42.372Z,16.75
2022-09-03T00:55:42.723Z,16.76
2022-09-03T00:56:44.882Z,16.75
2022-09-03T00:57:47.337Z,16.75
2022-09-03T00:58:43.488Z,16.69
2022-09-03T00:59:45.651Z,16.68
2022-09-03T01:00:44.032Z,16.61
2022-09-03T01:01:44.430Z,16.64
2022-09-03T01:02:46.585Z,16.57
2022-09-03T01:03:44.935Z,16.64
2022-09-03T01:04:47.090Z,16.69
2022-09-03T01:05:47.262Z,16.68
2022-09-03T01:06:47.412Z,16.66
2022-09-03T01:07:47.603Z,16.65
2022-09-03T01:08:49.379Z,16.64
2022-09-03T01:09:48.541Z,16.54
2022-09-03T01:10:47.777Z,16.58
2022-09-03T01:11:49.134Z,16.56
2022-09-03T01:12:49.316Z,16.54
2022-09-03T01:13:47.694Z,16.54
2022-09-03T01:14:49.887Z,16.49
2022-09-03T01:15:48.286Z,16.49
2022-09-03T01:16:48.572Z,16.51
2022-09-03T01:17:50.758Z,16.56
2022-09-03T01:18:49.139Z,16.54
2022-09-03T01:19:51.317Z,16.54
2022-09-03T01:20:49.708Z,16.51
2022-09-03T01:21:51.875Z,16.38
2022-09-03T01:22:50.245Z,16.38
2022-09-03T01:23:52.415Z,16.43
2022-09-03T01:24:50.800Z,16.43
2022-09-03T01:25:53.027Z,16.35
2022-09-03T01:26:51.408Z,16.32
2022-09-03T01:27:55.041Z,16.35
2022-09-03T01:28:51.951Z,16.38
2022-09-03T01:29:52.260Z,16.39
2022-09-03T01:30:55.435Z,16.51
2022-09-03T01:31:53.697Z,16.46
2022-09-03T01:34:10.350Z,16.47
2022-09-03T01:35:10.059Z,16.47
2022-09-03T01:36:11.289Z,16.42
2022-09-03T01:37:11.518Z,16.42
2022-09-03T01:38:11.050Z,16.47
2022-09-03T01:39:10.289Z,16.50
2022-09-03T01:40:10.576Z,16.46
2022-09-03T01:41:11.779Z,16.49
2022-09-03T01:42:12.200Z,16.46
2022-09-03T01:43:12.355Z,16.36
2022-09-03T01:44:13.625Z,16.32
2022-09-03T01:45:13.802Z,16.33
2022-09-03T01:46:14.053Z,16.31
2022-09-03T01:47:14.167Z,16.36
2022-09-03T01:48:12.938Z,16.38
2022-09-03T01:49:13.241Z,16.31
2022-09-03T01:50:15.419Z,16.24
2022-09-03T01:51:15.598Z,16.26
2022-09-03T01:52:14.108Z,16.23
2022-09-03T01:53:14.411Z,16.21
2022-09-03T01:54:20.832Z,16.29
2022-09-03T01:55:17.898Z,16.28
2022-09-03T01:56:16.097Z,16.24
2022-09-03T01:57:29.169Z,16.26
2022-09-03T01:58:16.900Z,16.20
2022-09-03T01:59:16.138Z,16.21
2022-09-03T02:00:16.443Z,16.21
2022-09-03T02:01:18.659Z,16.15
2022-09-03T02:02:18.833Z,16.15
2022-09-03T02:03:19.001Z,16.23
2022-09-03T02:04:19.169Z,16.21
2022-09-03T02:05:19.854Z,16.21
2022-09-03T02:06:20.084Z,16.23
2022-09-03T02:07:20.252Z,16.28
2022-09-03T02:08:20.466Z,16.26
2022-09-03T02:09:21.146Z,16.21
2022-09-03T02:10:21.325Z,16.23
2022-09-03T02:11:19.841Z,16.28
2022-09-03T02:12:22.002Z,16.32
2022-09-03T02:13:22.204Z,16.32
2022-09-03T02:14:22.388Z,16.36
2022-09-03T02:15:22.638Z,16.32
2022-09-03T02:16:23.245Z,16.24
2022-09-03T02:17:23.426Z,16.26
2022-09-03T02:18:23.798Z,16.26
2022-09-03T02:19:22.209Z,16.31
2022-09-03T02:20:24.397Z,16.35
2022-09-03T02:21:24.580Z,16.38
2022-09-03T02:22:24.754Z,16.39
2022-09-03T02:23:27.752Z,16.39
2022-09-03T02:24:23.678Z,16.41
2022-09-03T02:25:25.853Z,16.41
2022-09-03T02:26:26.040Z,16.38
2022-09-03T02:27:24.544Z,16.41
2022-09-03T02:28:24.945Z,16.39
2022-09-03T02:29:25.124Z,16.38
2022-09-03T02:30:25.436Z,16.38
2022-09-03T02:31:27.656Z,16.39
2022-09-03T02:32:27.798Z,16.39
2022-09-03T02:33:29.439Z,16.43
2022-09-03T02:34:26.592Z,16.43
2022-09-03T02:35:26.899Z,16.43
2022-09-03T02:36:29.078Z,16.43
2022-09-03T02:37:29.230Z,16.41
2022-09-03T02:38:29.409Z,16.35
2022-09-03T02:39:28.060Z,16.38
2022-09-03T02:40:28.352Z,16.42
2022-09-03T02:41:28.650Z,16.42
2022-09-03T02:42:30.822Z,16.38
2022-09-03T02:43:29.196Z,16.39
2022-09-03T02:44:29.507Z,16.38
2022-09-03T02:45:29.805Z,16.35
2022-09-03T02:46:32.063Z,16.32
2022-09-03T02:47:30.414Z,16.32
2022-09-03T02:48:32.590Z,16.39
2022-09-03T02:49:31.874Z,16.39
2022-09-03T02:50:32.032Z,16.38
2022-09-03T02:51:33.395Z,16.50
2022-09-03T02:52:32.609Z,16.38
2022-09-03T02:53:33.960Z,16.32
2022-09-03T02:54:34.150Z,16.38
2022-09-03T02:55:32.654Z,16.39
2022-09-03T02:56:34.834Z,16.39
2022-09-03T02:57:33.214Z,16.38
2022-09-03T02:58:33.521Z,16.36
2022-09-03T02:59:35.698Z,16.38
2022-09-03T03:00:34.104Z,16.38
2022-09-03T03:01:34.411Z,16.41
2022-09-03T03:02:34.778Z,16.42
2022-09-03T03:03:34.947Z,16.39
2022-09-03T03:04:37.145Z,16.36
2022-09-03T03:05:37.318Z,16.36
2022-09-03T03:06:37.503Z,16.36
2022-09-03T03:07:36.128Z,16.43
2022-09-03T03:08:36.433Z,16.43
2022-09-03T03:09:36.748Z,16.42
2022-09-03T03:10:38.921Z,16.42
2022-09-03T03:11:37.301Z,16.42
2022-09-03T03:12:37.621Z,16.43
2022-09-03T03:13:37.922Z,16.47
2022-09-03T03:14:40.103Z,16.49
2022-09-03T03:15:40.296Z,16.46
2022-09-03T03:16:41.949Z,16.42
2022-09-03T03:17:40.645Z,16.47
2022-09-03T03:18:39.397Z,16.42
2022-09-03T03:19:43.028Z,16.38
2022-09-03T03:20:43.228Z,16.49
2022-09-03T03:21:43.415Z,16.49
2022-09-03T03:22:42.108Z,16.51
2022-09-03T03:23:44.738Z,16.58
2022-09-03T03:24:42.081Z,16.58
2022-09-03T03:25:43.346Z,16.54
2022-09-03T03:26:43.521Z,16.42
2022-09-03T03:27:43.670Z,16.43
2022-09-03T03:28:43.850Z,16.46
2022-09-03T03:29:43.392Z,16.53
2022-09-03T03:30:43.822Z,16.54
2022-09-03T03:31:44.953Z,16.50
2022-09-03T03:32:43.451Z,16.46
2022-09-03T03:33:45.626Z,16.47
2022-09-03T03:34:43.986Z,16.53
2022-09-03T03:35:45.119Z,16.53
2022-09-03T03:36:45.539Z,16.53
2022-09-03T03:37:44.893Z,16.53
2022-09-03T03:38:47.065Z,16.50
2022-09-03T03:39:46.281Z,16.43
2022-09-03T03:40:45.784Z,16.46
2022-09-03T03:41:47.922Z,16.53
2022-09-03T03:42:48.096Z,16.56
2022-09-03T03:43:48.280Z,16.54
2022-09-03T03:44:46.901Z,16.50
2022-09-03T03:45:49.119Z,16.50
2022-09-03T03:46:49.236Z,16.49
2022-09-03T03:47:47.732Z,16.47
2022-09-03T03:48:48.914Z,16.50
2022-09-03T03:49:48.269Z,16.47
2022-09-03T03:50:48.593Z,16.53
2022-09-03T03:51:48.900Z,16.56
2022-09-03T03:52:51.078Z,16.53
2022-09-03T03:53:51.250Z,16.51
2022-09-03T03:54:51.422Z,16.50
2022-09-03T03:55:51.584Z,16.51
2022-09-03T03:56:55.340Z,16.58
2022-09-03T03:57:53.495Z,16.58
2022-09-03T03:58:52.670Z,16.50
2022-09-03T03:59:51.168Z,16.58
2022-09-03T04:00:51.566Z,16.49
2022-09-03T04:01:51.759Z,16.51
2022-09-03T04:02:53.002Z,16.56
2022-09-03T04:03:52.333Z,16.49
2022-09-03T04:04:52.612Z,16.56
2022-09-03T04:05:52.911Z,16.57
2022-09-03T04:06:53.220Z,16.60
2022-09-03T04:07:55.399Z,16.57
2022-09-03T04:08:55.573Z,16.54
2022-09-03T04:09:55.748Z,16.51
2022-09-03T04:10:55.935Z,16.57
2022-09-03T04:11:56.613Z,16.60
2022-09-03T04:12:56.840Z,16.61
2022-09-03T04:13:57.019Z,16.58
2022-09-03T04:14:57.219Z,16.60
2022-09-03T04:15:55.865Z,16.64
2022-09-03T04:16:58.089Z,16.60
2022-09-03T04:17:56.467Z,16.58
2022-09-03T04:19:00.589Z,16.58
2022-09-03T04:19:58.812Z,16.58
2022-09-03T04:20:59.033Z,16.57
2022-09-03T04:21:57.677Z,16.54
2022-09-03T04:22:57.992Z,16.58
2022-09-03T04:23:58.308Z,16.58
2022-09-03T04:24:58.625Z,16.51
2022-09-03T04:26:00.801Z,16.51
2022-09-03T04:27:00.986Z,16.51
2022-09-03T04:27:59.505Z,16.53
2022-09-03T04:28:59.834Z,16.54
2022-09-03T04:30:00.158Z,16.51
2022-09-03T04:31:02.429Z,16.47
2022-09-03T04:32:02.513Z,16.54
2022-09-03T04:33:01.009Z,16.58
2022-09-03T04:34:01.335Z,16.49
2022-09-03T04:35:01.678Z,16.53
2022-09-03T04:36:02.005Z,16.54
2022-09-03T04:37:04.193Z,16.47
2022-09-03T04:38:04.370Z,16.56
2022-09-03T04:39:02.901Z,16.60
2022-09-03T04:40:03.293Z,16.65
2022-09-03T04:41:05.418Z,16.64
2022-09-03T04:42:03.704Z,16.68
2022-09-03T04:43:04.028Z,16.69
2022-09-03T04:44:04.354Z,16.68
2022-09-03T04:45:06.546Z,16.56
2022-09-03T04:46:06.783Z,16.51
2022-09-03T04:47:05.211Z,16.58
2022-09-03T04:48:07.415Z,16.66
2022-09-03T04:49:05.822Z,16.74
2022-09-03T04:50:06.147Z,16.71
2022-09-03T04:51:06.516Z,16.75
2022-09-03T04:52:06.726Z,16.71
2022-09-03T04:53:08.130Z,16.69
2022-09-03T04:54:09.248Z,16.69
2022-09-03T04:55:07.646Z,16.64
2022-09-03T04:56:11.793Z,16.61
2022-09-03T04:57:08.231Z,16.72
2022-09-03T04:58:08.604Z,16.84
2022-09-03T04:59:08.819Z,16.79
2022-09-03T05:00:09.164Z,16.84
2022-09-03T05:01:11.389Z,16.75
2022-09-03T05:02:11.584Z,16.69
2022-09-03T05:03:10.085Z,16.69
2022-09-03T05:04:10.440Z,16.69
2022-09-03T05:05:10.658Z,16.79
2022-09-03T05:06:10.893Z,16.89
2022-09-03T05:07:13.084Z,16.90
2022-09-03T05:08:11.372Z,16.97
2022-09-03T05:09:11.718Z,17.01
2022-09-03T05:10:12.056Z,16.90
2022-09-03T05:11:12.407Z,16.87
2022-09-03T05:12:16.037Z,16.78
2022-09-03T05:13:13.090Z,16.81
2022-09-03T05:14:16.735Z,16.89
2022-09-03T05:15:14.790Z,16.90
2022-09-03T05:16:16.008Z,16.94
2022-09-03T05:17:16.155Z,17.11
2022-09-03T05:18:15.551Z,16.99
2022-09-03T05:19:16.756Z,17.04
2022-09-03T05:20:15.840Z,17.06
2022-09-03T05:21:15.469Z,17.11
2022-09-03T05:22:15.698Z,17.16
2022-09-03T05:23:16.832Z,17.14
2022-09-03T05:24:16.877Z,17.11
2022-09-03T05:25:17.433Z,17.05
2022-09-03T05:26:19.480Z,17.04
2022-09-03T05:27:17.152Z,17.06
2022-09-03T05:28:17.499Z,16.99
2022-09-03T05:29:18.678Z,17.05
2022-09-03T05:30:18.974Z,16.96
2022-09-03T05:31:19.491Z,16.94
2022-09-03T05:32:19.555Z,16.99
2022-09-03T05:33:19.971Z,17.09
2022-09-03T05:34:21.159Z,17.12
2022-09-03T05:35:25.362Z,17.12
2022-09-03T05:36:22.741Z,17.29
2022-09-03T05:37:20.863Z,17.16
2022-09-03T05:38:21.372Z,17.16
2022-09-03T05:39:22.513Z,17.11
2022-09-03T05:40:20.777Z,17.09
2022-09-03T05:41:22.959Z,17.09
2022-09-03T05:42:23.140Z,17.20
2022-09-03T05:43:21.555Z,17.15
2022-09-03T05:44:21.787Z,17.14
2022-09-03T05:45:22.981Z,17.16
2022-09-03T05:46:24.171Z,17.20
2022-09-03T05:47:23.329Z,17.26
2022-09-03T05:48:24.603Z,17.29
2022-09-03T05:49:24.700Z,17.36
2022-09-03T05:50:25.382Z,17.29
2022-09-03T05:51:23.817Z,17.29
2022-09-03T05:52:25.990Z,17.24
2022-09-03T05:53:26.169Z,17.30
2022-09-03T05:54:26.366Z,17.20
2022-09-03T05:55:27.248Z,17.22
2022-09-03T05:56:27.670Z,17.39
2022-09-03T05:57:26.363Z,17.41
2022-09-03T05:58:25.770Z,17.39
2022-09-03T05:59:27.925Z,17.38
2022-09-03T06:00:28.176Z,17.46
2022-09-03T06:01:28.272Z,17.56
2022-09-03T06:02:28.552Z,17.39
2022-09-03T06:03:27.256Z,17.34
2022-09-03T06:04:27.395Z,17.34
2022-09-03T06:05:30.592Z,17.39
2022-09-03T06:06:28.068Z,17.41
2022-09-03T06:07:28.286Z,17.44
2022-09-03T06:08:30.467Z,17.30
2022-09-03T06:09:28.757Z,17.44
2022-09-03T06:10:34.514Z,17.46
2022-09-03T06:11:30.218Z,17.51
2022-09-03T06:12:29.517Z,17.57
2022-09-03T06:13:31.691Z,17.60
2022-09-03T06:14:29.987Z,17.82
2022-09-03T06:15:30.223Z,17.90
2022-09-03T06:16:34.386Z,17.92
2022-09-03T06:17:30.692Z,17.97
2022-09-03T06:18:32.855Z,18.25
2022-09-03T06:19:33.055Z,18.34
2022-09-03T06:20:35.120Z,18.37
2022-09-03T06:21:34.644Z,18.16
2022-09-03T06:22:31.972Z,18.38
2022-09-03T06:23:34.140Z,18.81
2022-09-03T06:24:34.336Z,19.37
2022-09-03T06:25:32.739Z,19.96
2022-09-03T06:26:32.982Z,20.26
2022-09-03T06:27:33.223Z,20.06
2022-09-03T06:28:35.396Z,20.70
2022-09-03T06:29:33.708Z,21.00
2022-09-03T06:30:33.953Z,20.77
2022-09-03T06:31:36.188Z,20.47
2022-09-03T06:32:34.456Z,20.50
2022-09-03T06:33:34.692Z,20.59
2022-09-03T06:34:36.879Z,20.70
2022-09-03T06:35:42.847Z,20.36
2022-09-03T06:36:38.362Z,20.70
2022-09-03T06:37:35.682Z,20.77
2022-09-03T06:38:37.874Z,20.19
2022-09-03T06:39:38.112Z,20.66
2022-09-03T06:40:36.495Z,20.95
2022-09-03T06:41:36.739Z,21.02
2022-09-03T06:42:36.975Z,21.05
2022-09-03T06:43:37.214Z,21.09
2022-09-03T06:44:39.403Z,20.74
2022-09-03T06:45:37.756Z,20.26
2022-09-03T06:46:37.945Z,20.19
2022-09-03T06:47:38.182Z,20.84
2022-09-03T06:48:38.442Z,20.88
2022-09-03T06:49:39.608Z,20.75
2022-09-03T06:50:38.956Z,20.77
2022-09-03T06:51:39.193Z,21.06
2022-09-03T06:52:41.388Z,20.69
2022-09-03T06:53:39.693Z,20.72
2022-09-03T06:54:41.868Z,20.74
2022-09-03T06:55:40.219Z,21.11
2022-09-03T06:56:41.142Z,20.95
2022-09-03T06:57:42.617Z,20.72
2022-09-03T06:58:41.029Z,20.95
2022-09-03T06:59:43.234Z,21.20
2022-09-03T07:00:43.237Z,21.03
2022-09-03T07:01:43.649Z,20.74
2022-09-03T07:02:45.061Z,20.99
2022-09-03T07:03:42.410Z,21.00
2022-09-03T07:04:44.589Z,21.11
2022-09-03T07:05:42.907Z,21.06
2022-09-03T07:06:43.373Z,21.00
2022-09-03T07:07:44.309Z,20.84
2022-09-03T07:08:43.727Z,20.88
2022-09-03T07:09:48.326Z,20.78
2022-09-03T07:10:46.112Z,20.70
2022-09-03T07:11:44.521Z,20.67
2022-09-03T07:12:46.697Z,20.92
2022-09-03T07:13:44.997Z,20.93
2022-09-03T07:14:47.180Z,21.05
2022-09-03T07:15:46.644Z,21.15
2022-09-03T07:16:45.811Z,21.12
2022-09-03T07:17:46.040Z,21.21
2022-09-03T07:18:46.280Z,21.46
2022-09-03T07:19:48.468Z,21.25
2022-09-03T07:20:46.796Z,21.62
2022-09-03T07:21:50.131Z,21.66
2022-09-03T07:22:47.355Z,21.57
2022-09-03T07:23:49.543Z,21.76
2022-09-03T07:24:49.716Z,22.10
2022-09-03T07:25:48.166Z,22.18
2022-09-03T07:26:48.404Z,22.23
2022-09-03T07:27:52.548Z,22.23
2022-09-03T07:28:51.866Z,22.63
2022-09-03T07:29:52.547Z,22.78
2022-09-03T07:30:52.624Z,22.68
2022-09-03T07:31:49.836Z,22.47
2022-09-03T07:32:50.055Z,22.45
2022-09-03T07:33:52.210Z,22.11
2022-09-03T07:34:52.392Z,22.06
2022-09-03T07:35:50.826Z,21.77
2022-09-03T07:36:51.425Z,21.61
2022-09-03T07:37:53.233Z,22.17
2022-09-03T07:38:53.396Z,22.66
2022-09-03T07:39:53.627Z,22.44
2022-09-03T07:40:52.208Z,21.88
2022-09-03T07:41:52.430Z,22.30
2022-09-03T07:42:55.177Z,22.81
2022-09-03T07:43:52.958Z,22.93
2022-09-03T07:44:55.129Z,23.09
2022-09-03T07:45:53.445Z,22.45
2022-09-03T07:46:53.705Z,22.26
2022-09-03T07:47:53.908Z,22.29
2022-09-03T07:48:56.095Z,22.23
2022-09-03T07:49:54.392Z,22.22
2022-09-03T07:50:55.455Z,22.45
2022-09-03T07:51:55.874Z,22.55
2022-09-03T07:52:56.093Z,22.44
2022-09-03T07:53:57.537Z,22.59
2022-09-03T07:54:57.540Z,22.98
2022-09-03T07:55:57.721Z,23.03
2022-09-03T07:56:57.531Z,23.00
2022-09-03T07:57:56.719Z,23.18
2022-09-03T07:58:57.761Z,23.78
2022-09-03T07:59:59.141Z,23.69
2022-09-03T08:00:58.434Z,23.12
2022-09-03T08:01:58.757Z,23.31
2022-09-03T08:02:59.884Z,22.53
2022-09-03T08:03:58.374Z,22.60
2022-09-03T08:05:00.498Z,23.13
2022-09-03T08:05:58.966Z,23.58
2022-09-03T08:06:59.209Z,23.17
2022-09-03T08:07:59.441Z,23.15
2022-09-03T08:09:03.700Z,23.32
2022-09-03T08:10:01.862Z,23.28
2022-09-03T08:11:02.056Z,23.61
2022-09-03T08:12:02.252Z,23.62
2022-09-03T08:13:01.800Z,23.40
2022-09-03T08:14:01.951Z,23.69
2022-09-03T08:15:01.402Z,23.87
2022-09-03T08:16:01.674Z,24.32
2022-09-03T08:17:01.932Z,24.14
2022-09-03T08:18:03.537Z,24.30
2022-09-03T08:19:02.411Z,24.35
2022-09-03T08:20:03.598Z,24.02
2022-09-03T08:21:02.903Z,24.05
2022-09-03T08:22:03.141Z,24.01
2022-09-03T08:23:03.382Z,23.61
2022-09-03T08:24:03.627Z,23.41
2022-09-03T08:25:07.769Z,23.74
2022-09-03T08:26:05.191Z,23.48
2022-09-03T08:27:04.494Z,23.78
2022-09-03T08:28:06.641Z,24.50
2022-09-03T08:29:06.833Z,24.14
2022-09-03T08:30:07.072Z,24.32
2022-09-03T08:31:07.315Z,23.76
2022-09-03T08:32:07.380Z,23.80
2022-09-03T08:33:08.071Z,23.27
2022-09-03T08:34:08.245Z,23.46
2022-09-03T08:35:08.406Z,23.92
2022-09-03T08:36:08.604Z,24.60
2022-09-03T08:37:09.271Z,25.17
2022-09-03T08:38:10.920Z,25.13
2022-09-03T08:39:07.813Z,25.18
2022-09-03T08:40:11.976Z,25.44
2022-09-03T08:41:10.216Z,24.78
2022-09-03T08:42:08.647Z,24.47
2022-09-03T08:43:10.806Z,24.08
2022-09-03T08:44:09.108Z,24.10
2022-09-03T08:45:13.297Z,24.45
2022-09-03T08:46:11.602Z,23.95
2022-09-03T08:47:09.879Z,24.21
2022-09-03T08:48:12.055Z,24.08
2022-09-03T08:49:10.363Z,24.38
2022-09-03T08:50:12.617Z,24.29
2022-09-03T08:51:12.729Z,24.29
2022-09-03T08:52:12.886Z,23.81
2022-09-03T08:53:11.437Z,23.99
2022-09-03T08:54:11.676Z,23.65
2022-09-03T08:55:12.865Z,24.11
2022-09-03T08:56:14.128Z,23.86
2022-09-03T08:57:12.439Z,23.77
2022-09-03T08:58:12.683Z,23.47
2022-09-03T08:59:12.916Z,23.84
2022-09-03T09:00:14.183Z,24.10
2022-09-03T09:01:15.343Z,24.11
2022-09-03T09:02:13.831Z,23.96
2022-09-03T09:03:14.054Z,23.81
2022-09-03T09:04:14.287Z,24.17
2022-09-03T09:05:16.481Z,24.05
2022-09-03T09:06:16.662Z,24.42
2022-09-03T09:07:15.094Z,24.77
2022-09-03T09:08:17.283Z,24.50
2022-09-03T09:09:15.594Z,24.48
2022-09-03T09:10:17.826Z,24.66
2022-09-03T09:11:16.090Z,24.40
2022-09-03T09:12:18.271Z,24.30
2022-09-03T09:13:18.453Z,24.36
2022-09-03T09:14:16.889Z,24.55
2022-09-03T09:15:17.124Z,24.54
2022-09-03T09:16:19.341Z,24.50
2022-09-03T09:17:17.619Z,24.05
2022-09-03T09:18:17.861Z,24.14
2022-09-03T09:19:18.100Z,24.88
2022-09-03T09:20:20.288Z,24.36
2022-09-03T09:21:22.643Z,24.13
2022-09-03T09:22:18.831Z,24.18
2022-09-03T09:23:19.064Z,24.14
2022-09-03T09:24:19.315Z,24.05
2022-09-03T09:25:19.553Z,24.21
2022-09-03T09:26:21.737Z,24.57
2022-09-03T09:27:20.047Z,24.73
2022-09-03T09:28:20.291Z,24.61
2022-09-03T09:29:22.260Z,24.38
2022-09-03T09:30:20.822Z,24.68
2022-09-03T09:31:23.079Z,25.28
2022-09-03T09:32:21.624Z,25.11
2022-09-03T09:33:21.745Z,24.78
2022-09-03T09:34:21.984Z,24.29
2022-09-03T09:35:24.165Z,24.02
2022-09-03T09:36:24.356Z,24.48
2022-09-03T09:37:22.784Z,24.33
2022-09-03T09:38:23.083Z,24.03
2022-09-03T09:39:23.303Z,24.14
2022-09-03T09:40:25.465Z,24.36
2022-09-03T09:41:29.779Z,24.48
2022-09-03T09:42:24.215Z,24.05
2022-09-03T09:43:24.450Z,24.18
2022-09-03T09:44:24.685Z,24.17
2022-09-03T09:45:26.867Z,24.68
2022-09-03T09:46:25.241Z,24.80
2022-09-03T09:47:25.434Z,25.14
2022-09-03T09:48:25.810Z,25.14
2022-09-03T09:49:29.328Z,24.78
2022-09-03T09:50:28.089Z,24.88
2022-09-03T09:51:28.226Z,25.07
2022-09-03T09:52:26.908Z,24.63
2022-09-03T09:53:27.151Z,24.06
2022-09-03T09:54:27.398Z,23.44
2022-09-03T09:55:29.757Z,24.17
2022-09-03T09:56:28.769Z,24.24
2022-09-03T09:57:28.237Z,23.98
2022-09-03T09:58:28.482Z,24.08
2022-09-03T09:59:28.719Z,24.38
2022-09-03T10:00:28.960Z,24.99
2022-09-03T10:01:31.165Z,24.73
2022-09-03T10:02:31.391Z,24.32
2022-09-03T10:03:29.809Z,24.35
2022-09-03T10:04:33.200Z,24.57
2022-09-03T10:05:30.260Z,24.58
2022-09-03T10:06:33.903Z,24.47
2022-09-03T10:07:34.090Z,24.08
2022-09-03T10:08:31.035Z,24.38
2022-09-03T10:09:35.166Z,24.39
2022-09-03T10:10:32.556Z,24.86
2022-09-03T10:11:35.159Z,25.04
2022-09-03T10:12:34.419Z,24.63
2022-09-03T10:13:33.286Z,25.04
2022-09-03T10:14:34.533Z,24.38
2022-09-03T10:15:32.890Z,24.18
2022-09-03T10:16:34.023Z,24.06
2022-09-03T10:17:37.392Z,24.58
2022-09-03T10:18:34.593Z,24.85
2022-09-03T10:19:35.019Z,25.25
2022-09-03T10:20:34.308Z,25.13
2022-09-03T10:21:36.464Z,24.26
2022-09-03T10:22:36.651Z,23.91
2022-09-03T10:23:36.823Z,23.96
2022-09-03T10:24:35.259Z,24.21
2022-09-03T10:25:36.492Z,24.69
2022-09-03T10:26:37.713Z,24.93
2022-09-03T10:27:37.876Z,24.03
2022-09-03T10:28:36.246Z,23.77
2022-09-03T10:29:36.478Z,23.84
2022-09-03T10:30:37.540Z,23.41
2022-09-03T10:31:38.904Z,23.86
2022-09-03T10:32:41.849Z,24.08
2022-09-03T10:33:37.453Z,24.39
2022-09-03T10:34:39.642Z,24.54
2022-09-03T10:35:38.849Z,24.42
2022-09-03T10:36:40.920Z,23.87
2022-09-03T10:37:38.615Z,23.47
2022-09-03T10:38:39.803Z,23.40
2022-09-03T10:39:43.276Z,23.08
2022-09-03T10:40:43.126Z,22.87
2022-09-03T10:41:41.360Z,22.81
2022-09-03T10:42:42.043Z,23.39
2022-09-03T10:43:42.240Z,23.76
2022-09-03T10:44:42.424Z,24.48
2022-09-03T10:45:43.012Z,24.42
2022-09-03T10:46:41.252Z,24.38
2022-09-03T10:47:43.395Z,25.08
2022-09-03T10:48:43.641Z,24.54
2022-09-03T10:49:44.537Z,24.74
2022-09-03T10:50:46.179Z,24.89
2022-09-03T10:51:46.205Z,24.92
2022-09-03T10:52:45.705Z,24.33
2022-09-03T10:53:43.025Z,24.11
2022-09-03T10:54:43.278Z,24.24
2022-09-03T10:55:46.451Z,24.60
2022-09-03T10:56:43.771Z,23.68
2022-09-03T10:57:44.008Z,24.61
2022-09-03T10:58:46.189Z,24.99
2022-09-03T10:59:44.495Z,25.07
2022-09-03T11:00:46.669Z,24.58
2022-09-03T11:01:45.150Z,24.48
2022-09-03T11:02:45.480Z,24.58
2022-09-03T11:03:47.588Z,25.28
2022-09-03T11:04:47.783Z,24.73
2022-09-03T11:05:48.302Z,24.57
2022-09-03T11:06:46.611Z,25.14
2022-09-03T11:07:48.793Z,25.22
2022-09-03T11:08:48.974Z,25.17
2022-09-03T11:09:47.410Z,25.75
2022-09-03T11:10:51.065Z,25.90
2022-09-03T11:11:47.896Z,25.73
2022-09-03T11:12:50.056Z,25.53
2022-09-03T11:13:48.393Z,25.23
2022-09-03T11:14:50.596Z,25.41
2022-09-03T11:15:50.829Z,25.98
2022-09-03T11:16:49.223Z,26.66
2022-09-03T11:17:51.417Z,27.00
2022-09-03T11:18:49.725Z,27.30
2022-09-03T11:19:49.963Z,26.05
2022-09-03T11:20:53.179Z,25.07
2022-09-03T11:21:52.376Z,24.35
2022-09-03T11:22:50.816Z,24.69
2022-09-03T11:23:55.226Z,25.16
2022-09-03T11:24:53.230Z,25.55
2022-09-03T11:25:52.501Z,25.70
2022-09-03T11:26:51.810Z,25.29
2022-09-03T11:27:56.342Z,25.44
2022-09-03T11:28:52.511Z,26.05
2022-09-03T11:29:54.192Z,25.80
2022-09-03T11:30:53.842Z,25.73
2022-09-03T11:31:54.644Z,25.36
2022-09-03T11:32:55.375Z,25.25
2022-09-03T11:33:53.717Z,25.77
2022-09-03T11:34:53.960Z,25.95
2022-09-03T11:35:58.115Z,26.48
2022-09-03T11:36:56.311Z,26.75
2022-09-03T11:37:54.741Z,26.85
2022-09-03T11:38:54.983Z,25.35
2022-09-03T11:39:56.536Z,25.23
2022-09-03T11:40:59.385Z,25.22
2022-09-03T11:41:57.608Z,25.01
2022-09-03T11:42:57.793Z,24.53
2022-09-03T11:43:57.578Z,24.47
2022-09-03T11:44:56.601Z,23.95
2022-09-03T11:45:58.823Z,24.17
2022-09-03T11:46:58.970Z,24.33
2022-09-03T11:47:59.136Z,25.07
2022-09-03T11:48:57.701Z,25.40
2022-09-03T11:49:57.945Z,25.50
2022-09-03T11:50:59.045Z,25.03
2022-09-03T11:52:00.385Z,24.91
2022-09-03T11:53:00.579Z,24.63
2022-09-03T11:54:00.729Z,24.57
2022-09-03T11:54:59.301Z,24.70
2022-09-03T11:55:59.533Z,24.85
2022-09-03T11:57:01.729Z,24.78
2022-09-03T11:58:00.167Z,24.57
2022-09-03T11:59:02.341Z,24.23
2022-09-03T12:00:00.643Z,23.96
2022-09-03T12:01:03.973Z,23.56
2022-09-03T12:02:03.110Z,23.54
2022-09-03T12:03:01.680Z,23.50
2022-09-03T12:04:01.893Z,23.58
2022-09-03T12:05:02.213Z,23.54
2022-09-03T12:06:04.320Z,23.56
2022-09-03T12:07:04.504Z,24.01
2022-09-03T12:08:08.214Z,24.40
2022-09-03T12:09:04.311Z,24.03
2022-09-03T12:10:03.605Z,23.84
2022-09-03T12:11:07.815Z,23.41
2022-09-03T12:12:06.035Z,23.51
2022-09-03T12:13:04.463Z,23.32
2022-09-03T12:14:04.697Z,23.61
2022-09-03T12:15:04.946Z,23.99
2022-09-03T12:16:07.146Z,24.68
2022-09-03T12:17:07.286Z,25.01
2022-09-03T12:18:06.699Z,24.86
2022-09-03T12:19:05.993Z,25.07
2022-09-03T12:20:08.141Z,25.48
2022-09-03T12:21:08.325Z,25.10
2022-09-03T12:22:08.509Z,24.78
2022-09-03T12:23:07.211Z,24.85
2022-09-03T12:24:09.377Z,24.77
2022-09-03T12:25:07.687Z,24.28
2022-09-03T12:26:07.979Z,24.10
2022-09-03T12:27:10.163Z,25.07
2022-09-03T12:28:10.335Z,25.47
2022-09-03T12:29:09.362Z,25.65
2022-09-03T12:30:09.888Z,25.77
2022-09-03T12:31:10.362Z,26.45
2022-09-03T12:32:11.567Z,27.30
2022-09-03T12:33:10.883Z,27.18
2022-09-03T12:34:11.041Z,26.58
2022-09-03T12:35:11.599Z,26.66
2022-09-03T12:36:11.619Z,26.07
2022-09-03T12:37:12.973Z,25.44
2022-09-03T12:38:17.709Z,24.74
2022-09-03T12:39:13.298Z,24.43
2022-09-03T12:40:11.955Z,24.05
2022-09-03T12:41:23.472Z,23.93
2022-09-03T12:42:15.396Z,24.20
2022-09-03T12:44:14.954Z,23.88
2022-09-03T12:45:15.161Z,23.99
2022-09-03T12:46:15.569Z,24.11
2022-09-03T12:48:15.174Z,24.40
2022-09-03T12:49:31.730Z,24.99
2022-09-03T12:50:17.049Z,25.07
2022-09-03T12:52:17.185Z,24.10
2022-09-03T12:53:17.417Z,24.61
2022-09-03T12:54:17.554Z,25.31
2022-09-03T12:55:16.252Z,26.13
2022-09-03T12:56:20.391Z,26.33
2022-09-03T12:57:16.727Z,26.02
2022-09-03T12:58:16.964Z,25.99
2022-09-03T12:59:17.211Z,26.65
2022-09-03T13:00:19.377Z,26.05